Hundvaag 1 weather for Nov 2010
Month no. 281
Obs.
Da.
Temp. Dew Point Precip. Wind
Speed
Wind gusts Cloud cover Press. Humidity Wind dir. Sunny OPT
01.11.2010 7,6 5,9 1,5 0,9 1,6 1 1013,0 85,0 274,0 1 64,8 %
02.11.2010 9,1 7,1 5,5 6,7 19,3 7 998,4 87,0 133,0   74,3 %
03.11.2010 9,0 7,1 4,9 3,1 12,9 3 990,4 88,0 251,0   67,8 %
04.11.2010 5,6 3,1 10,9 1,7 29,0 2 1003,6 84,0 214,0   56,8 %
05.11.2010 6,1 4,1 5,5 0,2 1,6 0 1006,6 87,0 247,0   58,0 %
06.11.2010 4,1 0,6 2,0 4,6 14,5 5 1012,0 78,0 283,0 1 66,5 %
07.11.2010 3,1 1,2 1,8 0,0 8,0 0 1010,9 86,0 306,0 1 57,5 %
08.11.2010 3,4 -2,3 0,2 3,2 9,7 3 997,6 66,0 81,0 1 65,5 %
09.11.2010 1,6 -8,5 0,0 5,0 19,3 5 999,5 46,0 351,0 1 65,0 %
10.11.2010 2,1 -5,3 0,0 2,5 8,0 3 994,5 58,0 306,0   61,3 %
11.11.2010 2,8 -2,9 0,0 1,6 8,0 2 996,2 65,0 144,0 1 61,5 %
12.11.2010 6,2 1,9 2,0 3,8 4,8 4 967,8 74,0 60,0   67,0 %
13.11.2010 5,9 3,2 2,0 1,5 8,0 2 977,0 83,0 139,0   63,8 %
14.11.2010 5,2 2,9 15,1 1,7 0,0 2 993,6 87,0 161,0 1 51,8 %
15.11.2010 5,3 1,6 4,2 1,0 3,2 1 1000,7 86,0 295,0 1 60,0 %
16.11.2010 4,8 2,3 0,4 2,1 9,7 2 1023,0 85,0 133,0 1 62,8 %
17.11.2010 5,3 -0,1 0,0 4,1 16,1 4 1026,4 68,0 100,0 1 67,8 %
18.11.2010 2,6 -4,4 0,0 4,0 0,0 0 1022,6 61,0 100,0 1 56,0 %
19.11.2010 2,7 -3,7 0,0 0,0 0,0 0 1023,2 64,0 100,0   57,8 %
20.11.2010 2,4 -5,1 0,0 6,1 4,8 2 1024,3 59,0 100,0   57,8 %
21.11.2010 3,5 0,9 0,8 5,6 4,8 0 1023,6 85,0 100,0   55,5 %
22.11.2010 5,4 2,4 0,0 0,0 0,0 0 1021,6 81,0 100,0   60,0 %
23.11.2010 0,7 -3,6 0,0 0,0 0,0 0 1012,5 73,0   1 55,0 %
24.11.2010 -2,1 -9,1 0,0 3,2 3,2 1 1011,5 59,0 22,5 1 56,0 %
25.11.2010 -2,2 -8,9 0,0 18,5 19,3 0 1014,1 60,0 45,0 1 41,0 %
26.11.2010 -5,4 -11,7 0,0 7,4 8,0 2 1014,1 61,0 90,0 1 50,3 %
27.11.2010 -4,1 -11,8 0,0 13,0 12,9 3 1015,8 54,0 22,5   50,3 %
28.11.2010 -2,1 -12,6 0,0 9,3 9,7 3 1011,4 59,0 0,0 1 54,5 %
29.11.2010 -1,2 -10,3 0,0 25,7 27,4 8 1028,4 50,0 22,5 1 55,0 %
30.11.2010 -4,7 -12,6 0,0 11,3 11,3 10 1034,2 54,0 45,0 1 67,5 %
                       
Avrg/Sum 2,8 -2,3 56,8 4,9 9,2 2,5 1009,0 71,1 145,7 18 59,6 %